Time;durP1;ratioP1;P1;durP2;ratioP2;P2;SDS_P1;SDS_P2;PMS_P1;PMS_P2;Temp;Humidity;BMP_temperature;BMP_pressure;BME280_temperature;BME280_humidity;BME280_pressure;Samples;Min_cycle;Max_cycle;Signal;HPM_P1;HPM_P2
2023/03/13 00:02:04;;;;;;;25.70;13.60;;;;;;;2.77;65.97;99580.39;131422;1248;108660;-74
2023/03/13 00:05:10;;;;;;;26.90;14.10;;;;;;;2.77;65.80;99575.34;131256;1253;107538;-75
2023/03/13 00:08:16;;;;;;;26.10;14.40;;;;;;;2.77;65.93;99572.46;131423;1247;107576;-76
2023/03/13 00:11:21;;;;;;;24.50;13.30;;;;;;;2.78;65.81;99572.05;131387;1255;107505;-75
2023/03/13 00:14:27;;;;;;;29.60;15.20;;;;;;;2.80;65.87;99568.42;131155;1253;107507;-77
2023/03/13 00:17:33;;;;;;;31.60;15.90;;;;;;;2.79;65.79;99563.39;131168;1254;107260;-76
2023/03/13 00:20:38;;;;;;;34.70;17.20;;;;;;;2.80;65.86;99560.34;131401;1253;107563;-77
2023/03/13 00:23:44;;;;;;;27.80;15.40;;;;;;;2.81;65.83;99557.23;131238;1252;107499;-76
2023/03/13 00:26:50;;;;;;;24.10;13.40;;;;;;;2.82;65.72;99558.95;131122;1248;107430;-76
2023/03/13 00:29:55;;;;;;;26.10;13.80;;;;;;;2.82;65.77;99565.45;131138;1267;107534;-77
2023/03/13 00:33:01;;;;;;;23.50;12.50;;;;;;;2.82;65.79;99570.00;131216;1248;107544;-76
2023/03/13 00:36:09;;;;;;;24.00;12.40;;;;;;;2.80;65.87;99575.96;131173;1254;107578;-78
2023/03/13 00:39:14;;;;;;;22.00;11.70;;;;;;;2.74;66.00;99581.64;131178;1250;108537;-75
2023/03/13 00:42:22;;;;;;;21.90;13.30;;;;;;;2.69;66.09;99576.05;131173;1247;107421;-76
2023/03/13 00:45:27;;;;;;;24.60;13.70;;;;;;;2.69;66.37;99562.38;131135;1251;107475;-76
2023/03/13 00:48:34;;;;;;;25.70;13.10;;;;;;;2.69;66.47;99555.70;131205;1250;107519;-75
2023/03/13 00:51:39;;;;;;;20.50;11.50;;;;;;;2.68;66.68;99548.25;131378;1253;106019;-76
2023/03/13 00:54:45;;;;;;;19.50;11.30;;;;;;;2.68;66.80;99542.48;131299;1258;107528;-76
2023/03/13 00:57:50;;;;;;;27.30;14.50;;;;;;;2.66;66.91;99530.11;131296;1252;106535;-76
2023/03/13 01:00:56;;;;;;;21.30;11.00;;;;;;;2.68;67.06;99540.00;131441;1248;107642;-75
2023/03/13 01:04:05;;;;;;;22.80;11.90;;;;;;;2.71;66.95;99539.91;131222;1254;107587;-75
2023/03/13 01:07:10;;;;;;;18.70;10.10;;;;;;;2.79;66.96;99542.32;131146;1248;108639;-75
2023/03/13 01:10:17;;;;;;;22.40;12.60;;;;;;;2.86;67.11;99537.88;131234;1253;107404;-76
2023/03/13 01:13:23;;;;;;;25.20;14.70;;;;;;;2.93;67.10;99528.86;131388;1253;106438;-76
2023/03/13 01:16:33;;;;;;;30.60;17.50;;;;;;;2.99;67.15;99520.87;131348;1254;107558;-75
2023/03/13 01:19:38;;;;;;;26.10;14.30;;;;;;;3.03;67.19;99520.03;131409;1264;107560;-75
2023/03/13 01:22:44;;;;;;;23.30;12.10;;;;;;;3.05;67.46;99507.53;131357;1248;107496;-75
2023/03/13 01:25:49;;;;;;;20.10;11.70;;;;;;;3.07;67.49;99495.29;131342;1253;108094;-75
2023/03/13 01:28:56;;;;;;;24.70;13.80;;;;;;;3.06;67.75;99498.33;131366;1247;107548;-76
2023/03/13 01:32:01;;;;;;;22.10;11.70;;;;;;;3.03;67.86;99501.77;131158;1248;107519;-76
2023/03/13 01:35:08;;;;;;;19.60;10.80;;;;;;;3.02;67.88;99507.67;131169;1252;107547;-76
2023/03/13 01:38:15;;;;;;;18.30;10.20;;;;;;;3.02;68.09;99511.19;131344;1248;107343;-76
2023/03/13 01:41:22;;;;;;;21.00;11.90;;;;;;;2.99;68.13;99508.61;131246;1248;107385;-76
2023/03/13 01:44:28;;;;;;;20.20;12.20;;;;;;;2.99;68.23;99507.19;131356;1253;107493;-78
2023/03/13 01:47:34;;;;;;;20.90;11.40;;;;;;;2.97;68.21;99502.91;131088;1247;107435;-77
2023/03/13 01:50:49;;;;;;;18.80;10.80;;;;;;;2.96;68.44;99501.63;131090;1248;107456;-77
2023/03/13 01:54:07;;;;;;;19.00;11.40;;;;;;;2.92;68.42;99493.81;131290;1248;106407;-76
2023/03/13 01:57:21;;;;;;;20.10;11.30;;;;;;;2.89;68.55;99487.95;131361;1253;108089;-77
2023/03/13 02:00:31;;;;;;;20.20;11.40;;;;;;;2.87;68.78;99483.20;131299;1247;107536;-75
2023/03/13 02:03:38;;;;;;;19.80;11.40;;;;;;;2.86;68.82;99484.88;131383;1252;107646;-75
2023/03/13 02:06:47;;;;;;;21.50;10.80;;;;;;;2.86;69.32;99483.81;131265;1253;107518;-76
2023/03/13 02:09:55;;;;;;;17.60;9.10;;;;;;;2.85;69.18;99478.42;131224;1252;107492;-76
2023/03/13 02:13:03;;;;;;;18.10;10.10;;;;;;;2.89;69.19;99481.30;131121;1250;107531;-76
2023/03/13 02:16:10;;;;;;;18.10;10.60;;;;;;;2.94;69.05;99483.13;130928;1256;251158;-76
2023/03/13 02:19:19;;;;;;;21.60;11.00;;;;;;;3.01;69.28;99486.46;131160;1254;107545;-76
2023/03/13 02:22:31;;;;;;;17.10;10.60;;;;;;;3.04;69.23;99482.17;131280;1252;107505;-76
2023/03/13 02:25:43;;;;;;;17.70;10.80;;;;;;;3.03;69.38;99482.94;131350;1262;107533;-75
2023/03/13 02:28:49;;;;;;;19.00;10.30;;;;;;;3.04;69.43;99481.51;131253;1247;107849;-77
2023/03/13 02:31:56;;;;;;;17.30;10.90;;;;;;;3.04;69.51;99481.27;131412;1247;107383;-76
2023/03/13 02:35:07;;;;;;;15.20;9.90;;;;;;;3.04;69.48;99482.70;131367;1251;107979;-75
2023/03/13 02:38:18;;;;;;;17.90;10.40;;;;;;;3.04;69.73;99482.85;131323;1248;107466;-76
2023/03/13 02:41:25;;;;;;;18.50;10.30;;;;;;;3.01;70.26;99484.22;131309;1271;107561;-76
2023/03/13 02:44:31;;;;;;;15.50;9.50;;;;;;;2.97;70.27;99484.87;131177;1252;107447;-76
2023/03/13 02:47:37;;;;;;;16.90;10.40;;;;;;;2.94;70.59;99488.93;131183;1253;107507;-76
2023/03/13 02:50:43;;;;;;;16.10;9.50;;;;;;;2.97;70.67;99488.19;131167;1252;107547;-77
2023/03/13 02:53:51;;;;;;;15.80;8.90;;;;;;;3.02;70.85;99483.58;131229;1253;107536;-76
2023/03/13 02:57:01;;;;;;;15.40;9.40;;;;;;;3.08;71.21;99487.81;131337;1250;107254;-75
2023/03/13 03:00:11;;;;;;;17.20;10.40;;;;;;;3.14;71.61;99490.81;131335;1252;107508;-76
2023/03/13 03:03:18;;;;;;;16.80;9.60;;;;;;;3.17;71.72;99489.26;131123;1250;107441;-77
2023/03/13 03:06:24;;;;;;;14.50;10.00;;;;;;;3.18;71.74;99489.02;131013;1254;106185;-77
2023/03/13 03:09:30;;;;;;;14.70;9.60;;;;;;;3.15;72.02;99496.00;130943;1254;107414;-76
2023/03/13 03:12:39;;;;;;;15.60;9.90;;;;;;;3.14;72.28;99496.45;130996;1251;107519;-76
2023/03/13 03:15:45;;;;;;;15.70;10.10;;;;;;;3.10;72.28;99495.89;130949;1273;107265;-76
2023/03/13 03:18:51;;;;;;;16.50;10.00;;;;;;;3.07;72.55;99491.05;130927;1254;107544;-77
2023/03/13 03:21:56;;;;;;;16.30;10.40;;;;;;;3.03;72.72;99483.15;130987;1251;107589;-76
2023/03/13 03:25:03;;;;;;;16.00;9.50;;;;;;;3.00;72.65;99490.06;131077;1250;108081;-77
2023/03/13 03:28:09;;;;;;;13.60;8.00;;;;;;;3.01;72.86;99487.64;130857;1254;107443;-74
2023/03/13 03:31:17;;;;;;;14.00;8.80;;;;;;;3.06;73.13;99490.10;131000;1255;107451;-77
2023/03/13 03:34:23;;;;;;;14.90;9.80;;;;;;;3.10;73.14;99485.55;131056;1250;107522;-74
2023/03/13 03:37:29;;;;;;;13.60;9.00;;;;;;;3.12;73.33;99487.47;130992;1249;107444;-75
2023/03/13 03:40:36;;;;;;;14.20;9.30;;;;;;;3.13;73.35;99482.33;131013;1254;107553;-73
2023/03/13 03:43:42;;;;;;;13.50;9.50;;;;;;;3.11;73.66;99480.02;131017;1249;107438;-74
2023/03/13 03:46:48;;;;;;;14.60;9.50;;;;;;;3.09;73.61;99473.52;130996;1250;106401;-75
2023/03/13 03:49:54;;;;;;;15.50;9.20;;;;;;;3.05;73.75;99473.27;131070;1253;107555;-77
2023/03/13 03:53:00;;;;;;;13.40;9.10;;;;;;;3.06;73.91;99472.36;130997;1250;107642;-76
2023/03/13 03:56:07;;;;;;;13.00;8.20;;;;;;;3.07;74.15;99470.35;131101;1249;107472;-75
2023/03/13 03:59:14;;;;;;;14.20;9.00;;;;;;;3.10;74.33;99459.34;130978;1255;107497;-76
2023/03/13 04:02:23;;;;;;;13.90;9.20;;;;;;;3.14;74.33;99458.70;131188;1248;107432;-77
2023/03/13 04:05:30;;;;;;;17.60;11.20;;;;;;;3.17;74.61;99454.27;131221;1248;107508;-76
2023/03/13 04:08:36;;;;;;;18.70;10.90;;;;;;;3.16;74.66;99457.64;131327;1247;107409;-76
2023/03/13 04:11:41;;;;;;;17.70;10.30;;;;;;;3.14;74.76;99449.01;131072;1247;107351;-75
2023/03/13 04:14:49;;;;;;;20.10;11.30;;;;;;;3.12;74.95;99447.06;131286;1248;107341;-77
2023/03/13 04:17:55;;;;;;;19.80;10.70;;;;;;;3.09;74.71;99445.23;131223;1252;107424;-76
2023/03/13 04:21:06;;;;;;;17.10;10.20;;;;;;;3.07;75.19;99438.50;131092;1253;107338;-76
2023/03/13 04:24:20;;;;;;;23.40;12.70;;;;;;;3.08;75.32;99440.01;131061;1250;107434;-77
2023/03/13 04:27:29;;;;;;;57.70;24.70;;;;;;;3.12;75.07;99436.83;131089;1252;107434;-75
2023/03/13 04:30:35;;;;;;;38.90;16.00;;;;;;;3.20;74.99;99432.42;131155;1251;107485;-77
2023/03/13 04:34:01;;;;;;;69.40;22.70;;;;;;;3.24;75.67;99421.38;131096;1251;108126;-78
2023/03/13 04:37:25;;;;;;;856.90;242.90;;;;;;;3.22;75.89;99412.36;131123;1248;107541;-76
2023/03/13 04:40:31;;;;;;;519.20;133.70;;;;;;;3.20;75.94;99414.13;131077;1263;107524;-74
2023/03/13 04:43:48;;;;;;;35.70;15.80;;;;;;;3.20;75.77;99411.33;131293;1252;107461;-76
2023/03/13 04:47:10;;;;;;;43.10;18.60;;;;;;;3.20;75.82;99412.34;131076;1253;107492;-76
2023/03/13 04:50:25;;;;;;;660.70;289.00;;;;;;;3.23;75.94;99413.50;131043;1250;107449;-77
2023/03/13 04:54:00;;;;;;;47.40;21.00;;;;;;;3.30;76.21;99419.09;131157;1252;108668;-77
2023/03/13 04:57:19;;;;;;;31.80;14.90;;;;;;;3.35;76.03;99420.39;131372;1248;107361;-78
2023/03/13 05:00:39;;;;;;;25.60;12.20;;;;;;;3.39;75.95;99420.80;131381;1250;107372;-77
2023/03/13 05:03:51;;;;;;;16.70;10.30;;;;;;;3.41;76.23;99419.95;131315;1252;107509;-78
2023/03/13 05:07:32;;;;;;;16.60;10.00;;;;;;;3.40;76.53;99421.95;130497;1259;107539;-75
2023/03/13 05:10:48;;;;;;;15.60;9.70;;;;;;;3.39;76.41;99421.66;131240;1252;107564;-77
2023/03/13 05:14:14;;;;;;;17.70;9.60;;;;;;;3.39;76.34;99418.85;131335;1252;106545;-75
2023/03/13 05:17:48;;;;;;;15.40;8.70;;;;;;;3.43;76.57;99415.14;131278;1252;107506;-77
2023/03/13 05:21:05;;;;;;;15.40;8.90;;;;;;;3.50;76.63;99410.35;131132;1252;107476;-76
2023/03/13 05:24:21;;;;;;;15.20;10.00;;;;;;;3.57;76.71;99405.38;131336;1250;108746;-76
2023/03/13 05:27:48;;;;;;;14.50;9.00;;;;;;;3.63;76.45;99403.27;131101;1248;107380;-75
2023/03/13 05:31:07;;;;;;;14.10;9.20;;;;;;;3.68;76.70;99400.42;131374;1252;107470;-78
2023/03/13 05:34:43;;;;;;;15.20;9.80;;;;;;;3.69;76.82;99394.85;131220;1252;107644;-75
2023/03/13 05:38:07;;;;;;;51.80;22.80;;;;;;;3.72;76.87;99395.46;131265;1253;107232;-75
2023/03/13 05:41:27;;;;;;;46.60;19.40;;;;;;;3.78;76.92;99388.53;131365;1247;108738;-76
2023/03/13 05:44:33;;;;;;;35.50;14.80;;;;;;;3.85;77.01;99382.59;131178;1248;107548;-76
2023/03/13 05:48:11;;;;;;;13.80;8.50;;;;;;;3.99;77.17;99376.46;131298;1254;106524;-74
2023/03/13 05:51:40;;;;;;;116.10;37.30;;;;;;;4.13;77.12;99376.17;131179;1251;108097;-78
2023/03/13 05:55:06;;;;;;;37.10;15.10;;;;;;;4.22;77.20;99375.67;131303;1251;108080;-78
2023/03/13 05:58:24;;;;;;;37.10;15.50;;;;;;;4.30;77.37;99376.23;131354;1251;105926;-77
2023/03/13 06:01:44;;;;;;;16.50;10.30;;;;;;;4.37;77.56;99373.59;131392;1251;106574;-74
2023/03/13 06:04:55;;;;;;;18.20;9.80;;;;;;;4.39;77.56;99373.17;131369;1252;107324;-75
2023/03/13 06:08:02;;;;;;;19.50;12.00;;;;;;;4.43;77.70;99368.98;131316;1253;107554;-74
2023/03/13 06:11:08;;;;;;;90.80;54.30;;;;;;;4.49;77.78;99373.86;131328;1252;107695;-75
2023/03/13 06:14:14;;;;;;;32.90;18.70;;;;;;;4.57;77.90;99365.05;131374;1252;107667;-74
2023/03/13 06:17:26;;;;;;;24.80;17.60;;;;;;;4.70;77.90;99368.64;131410;1252;106305;-74
2023/03/13 06:20:31;;;;;;;16.50;11.40;;;;;;;4.79;78.09;99364.18;131298;1253;105544;-76
2023/03/13 06:23:37;;;;;;;15.60;9.20;;;;;;;4.85;78.12;99361.73;131119;1248;107598;-77
2023/03/13 06:26:43;;;;;;;14.60;8.70;;;;;;;4.89;78.09;99356.73;131170;1248;107536;-76
2023/03/13 06:29:49;;;;;;;11.90;7.50;;;;;;;4.92;78.08;99353.11;131064;1252;107560;-75
2023/03/13 06:32:54;;;;;;;13.20;7.20;;;;;;;4.96;78.19;99348.73;131037;1250;107561;-76
2023/03/13 06:36:01;;;;;;;12.80;8.00;;;;;;;5.04;78.44;99349.07;131179;1252;107528;-74
2023/03/13 06:39:08;;;;;;;12.80;8.30;;;;;;;5.18;78.48;99351.51;131138;1254;107585;-76
2023/03/13 06:42:13;;;;;;;10.90;7.80;;;;;;;5.34;78.33;99354.27;131100;1250;108379;-76
2023/03/13 06:45:19;;;;;;;12.20;8.30;;;;;;;5.47;78.40;99353.36;131103;1252;107481;-77
2023/03/13 06:48:25;;;;;;;11.40;8.20;;;;;;;5.59;78.37;99352.14;131094;1252;106139;-76
2023/03/13 06:51:30;;;;;;;13.60;8.60;;;;;;;5.70;78.43;99355.14;131101;1252;105943;-77
2023/03/13 06:54:36;;;;;;;13.50;7.90;;;;;;;5.80;78.22;99354.58;131126;1248;106705;-76
2023/03/13 06:57:42;;;;;;;11.40;7.30;;;;;;;5.84;78.17;99353.84;131077;1250;107323;-77
2023/03/13 07:00:47;;;;;;;11.30;7.10;;;;;;;5.90;78.58;99350.41;131094;1248;107160;-77
2023/03/13 07:03:53;;;;;;;14.70;8.20;;;;;;;6.00;78.43;99342.98;131259;1252;107570;-76
2023/03/13 07:06:58;;;;;;;15.10;8.70;;;;;;;6.14;78.36;99336.52;131293;1251;106093;-77
2023/03/13 07:10:05;;;;;;;13.00;8.40;;;;;;;6.27;78.32;99330.53;131388;1247;108664;-76
2023/03/13 07:13:11;;;;;;;11.80;8.00;;;;;;;6.38;78.46;99330.35;131475;1251;107440;-76
2023/03/13 07:16:16;;;;;;;13.90;8.50;;;;;;;6.48;78.66;99322.81;131296;1252;107532;-76
2023/03/13 07:19:22;;;;;;;14.30;8.30;;;;;;;6.57;78.66;99323.95;131384;1247;107409;-76
2023/03/13 07:22:28;;;;;;;47.60;22.60;;;;;;;6.59;78.73;99326.02;131443;1250;107491;-76
2023/03/13 07:25:34;;;;;;;18.50;9.50;;;;;;;6.62;78.77;99325.52;131411;1251;107548;-76
2023/03/13 07:28:39;;;;;;;14.60;8.60;;;;;;;6.67;78.77;99316.94;131306;1253;107534;-77
2023/03/13 07:31:45;;;;;;;62.20;23.80;;;;;;;6.75;78.68;99312.48;131307;1251;107286;-77
2023/03/13 07:34:50;;;;;;;41.20;16.70;;;;;;;6.88;78.76;99309.14;131335;1252;107515;-77
2023/03/13 07:37:56;;;;;;;26.70;12.40;;;;;;;7.07;78.70;99310.33;131251;1252;107554;-76
2023/03/13 07:41:02;;;;;;;157.30;47.30;;;;;;;7.21;78.64;99305.23;131116;1252;108006;-77
2023/03/13 07:44:07;;;;;;;100.70;32.50;;;;;;;7.33;78.55;99298.55;131065;1251;106771;-76
2023/03/13 07:47:13;;;;;;;70.90;24.40;;;;;;;7.42;78.89;99300.36;131105;1264;107566;-76
2023/03/13 07:50:19;;;;;;;29.90;12.50;;;;;;;7.56;78.71;99301.34;131070;1252;107513;-76
2023/03/13 07:53:25;;;;;;;117.40;32.40;;;;;;;7.67;78.72;99296.10;130997;1252;107258;-77
2023/03/13 07:56:30;;;;;;;48.80;17.70;;;;;;;7.82;78.72;99296.80;131319;1252;107443;-75
2023/03/13 07:59:36;;;;;;;28.00;13.70;;;;;;;7.97;78.55;99296.60;131348;1247;107423;-76
2023/03/13 08:02:42;;;;;;;94.40;31.30;;;;;;;8.09;78.34;99295.14;131348;1248;107534;-77
2023/03/13 08:05:47;;;;;;;53.20;18.60;;;;;;;8.20;78.47;99295.56;131246;1248;108706;-76
2023/03/13 08:08:56;;;;;;;32.70;14.30;;;;;;;8.34;78.43;99303.30;131059;1252;107544;-77
2023/03/13 08:12:02;;;;;;;301.40;90.60;;;;;;;8.42;78.14;99294.66;131153;1252;107511;-76
2023/03/13 08:15:10;;;;;;;124.10;38.70;;;;;;;8.43;78.14;99292.16;131328;1250;107420;-76
2023/03/13 08:18:15;;;;;;;600.20;213.20;;;;;;;8.44;78.06;99280.70;131372;1252;108634;-76
2023/03/13 08:21:26;;;;;;;366.40;103.90;;;;;;;8.47;78.09;99283.55;131374;1252;107526;-76
2023/03/13 08:24:32;;;;;;;147.90;42.80;;;;;;;8.53;78.14;99279.05;131356;1252;107533;-77
2023/03/13 08:27:37;;;;;;;119.40;35.20;;;;;;;8.55;78.26;99274.83;131421;1258;107231;-76
2023/03/13 08:30:43;;;;;;;30.60;13.10;;;;;;;8.60;78.25;99277.83;131314;1247;107666;-75
2023/03/13 08:33:49;;;;;;;22.90;11.70;;;;;;;8.68;78.34;99276.31;131199;1262;105994;-76
2023/03/13 08:36:55;;;;;;;49.20;20.00;;;;;;;8.77;77.97;99273.58;131114;1250;107510;-75
2023/03/13 08:40:01;;;;;;;22.90;12.30;;;;;;;8.88;78.16;99273.71;131062;1262;107248;-77
2023/03/13 08:43:07;;;;;;;66.10;31.70;;;;;;;8.97;78.12;99263.96;131048;1252;106782;-76
2023/03/13 08:46:13;;;;;;;23.70;13.40;;;;;;;9.09;77.95;99254.77;131196;1252;107412;-76
2023/03/13 08:49:18;;;;;;;16.40;9.40;;;;;;;9.24;77.82;99252.73;131144;1250;107719;-77
2023/03/13 08:52:25;;;;;;;32.10;18.80;;;;;;;9.35;77.63;99246.86;131075;1252;105938;-76
2023/03/13 08:55:31;;;;;;;17.00;10.50;;;;;;;9.44;77.78;99247.64;130968;1252;107554;-76
2023/03/13 08:58:36;;;;;;;11.70;8.00;;;;;;;9.56;77.59;99238.10;131098;1252;107493;-76
2023/03/13 09:01:42;;;;;;;11.40;7.10;;;;;;;9.65;77.80;99235.02;131029;1252;107450;-76
2023/03/13 09:04:48;;;;;;;9.00;6.10;;;;;;;9.76;77.48;99235.63;131130;1250;107450;-76
2023/03/13 09:07:55;;;;;;;12.00;6.80;;;;;;;9.84;77.55;99229.18;131454;1252;106221;-76
2023/03/13 09:11:02;;;;;;;11.40;7.10;;;;;;;9.91;77.36;99225.35;131421;1253;107518;-78
2023/03/13 09:14:10;;;;;;;11.90;6.80;;;;;;;9.99;77.51;99220.21;131376;1262;107526;-75
2023/03/13 09:17:16;;;;;;;11.50;8.40;;;;;;;10.06;76.65;99211.89;131440;1253;106435;-77
2023/03/13 09:20:21;;;;;;;11.70;7.20;;;;;;;10.06;76.92;99205.55;131454;1248;106516;-76
2023/03/13 09:23:28;;;;;;;96.80;55.60;;;;;;;10.12;76.85;99201.52;131431;1253;107624;-74
2023/03/13 09:26:33;;;;;;;38.10;23.40;;;;;;;10.16;76.95;99192.10;131433;1248;107430;-77
2023/03/13 09:29:41;;;;;;;14.40;9.30;;;;;;;10.21;76.75;99188.49;131399;1252;108509;-77
2023/03/13 09:32:46;;;;;;;19.30;12.50;;;;;;;10.21;76.48;99189.73;131175;1252;107454;-77
2023/03/13 09:35:52;;;;;;;27.90;17.30;;;;;;;10.19;76.45;99190.88;131479;1252;107500;-77
2023/03/13 09:38:59;;;;;;;13.10;7.90;;;;;;;10.15;76.39;99197.23;131368;1253;107548;-76
2023/03/13 09:42:14;;;;;;;16.00;9.50;;;;;;;10.12;76.15;99196.48;131424;1261;107618;-77
2023/03/13 09:45:31;;;;;;;18.00;8.60;;;;;;;10.11;76.24;99193.06;131361;1262;107497;-76
2023/03/13 09:48:41;;;;;;;12.90;7.80;;;;;;;10.12;76.31;99182.98;131440;1252;107354;-76
2023/03/13 09:51:51;;;;;;;13.30;7.90;;;;;;;10.20;76.38;99181.90;131415;1247;107507;-77
2023/03/13 09:55:02;;;;;;;28.10;19.30;;;;;;;10.36;75.67;99175.82;131411;1254;107423;-78
2023/03/13 09:58:15;;;;;;;50.40;26.70;;;;;;;10.53;75.94;99175.23;131464;1252;107510;-76
2023/03/13 10:01:22;;;;;;;;;;;;;;;10.73;75.58;99170.95;131514;1253;106409;-76
2023/03/13 10:04:35;;;;;;;73.70;29.10;;;;;;;10.80;75.45;99160.84;131363;1263;107515;-75
2023/03/13 10:07:41;;;;;;;21.00;10.50;;;;;;;10.85;75.19;99151.96;131092;1255;107542;-74
2023/03/13 10:10:53;;;;;;;176.00;62.70;;;;;;;10.90;75.53;99154.85;131254;1248;107549;-75
2023/03/13 10:14:01;;;;;;;;;;;;;;;11.00;75.10;99141.96;131316;1252;107514;-75
2023/03/13 10:17:15;;;;;;;67.70;28.00;;;;;;;11.09;74.89;99138.96;131319;1252;107527;-76
2023/03/13 10:20:26;;;;;;;76.90;30.30;;;;;;;11.19;74.52;99137.92;131320;1252;107101;-75
2023/03/13 10:23:39;;;;;;;29.10;14.40;;;;;;;11.31;74.38;99138.36;131384;1252;106715;-74
2023/03/13 10:26:44;;;;;;;17.80;9.30;;;;;;;11.43;74.25;99141.80;131285;1252;107525;-75
2023/03/13 10:29:50;;;;;;;21.60;11.50;;;;;;;11.51;73.97;99139.70;131048;1250;106550;-75
2023/03/13 10:33:00;;;;;;;39.70;24.70;;;;;;;11.58;73.47;99131.02;131225;1252;107534;-76
2023/03/13 10:36:11;;;;;;;13.90;8.60;;;;;;;11.67;73.74;99120.86;131432;1252;107629;-75
2023/03/13 10:39:20;;;;;;;11.10;5.80;;;;;;;11.81;73.32;99114.92;131410;1253;107928;-77
2023/03/13 10:42:32;;;;;;;12.80;6.70;;;;;;;11.90;73.07;99099.74;131376;1254;107420;-77
2023/03/13 10:45:39;;;;;;;11.60;7.50;;;;;;;12.01;72.71;99093.80;131454;1247;106345;-77
2023/03/13 10:48:44;;;;;;;11.50;5.60;;;;;;;12.11;72.63;99084.33;131461;1252;107206;-76
2023/03/13 10:51:52;;;;;;;11.00;5.70;;;;;;;12.18;72.08;99084.84;131410;1253;107476;-77
2023/03/13 10:55:02;;;;;;;10.60;5.40;;;;;;;12.22;72.64;99077.23;131438;1251;108631;-77
2023/03/13 10:58:18;;;;;;;8.80;5.30;;;;;;;12.28;71.89;99075.98;131484;1247;107593;-77
2023/03/13 11:01:27;;;;;;;11.10;6.30;;;;;;;12.32;72.19;99070.64;131445;1257;107316;-76
2023/03/13 11:04:36;;;;;;;7.90;4.30;;;;;;;12.39;72.26;99068.27;131456;1247;107225;-76
2023/03/13 11:07:44;;;;;;;10.20;4.50;;;;;;;12.46;72.18;99061.77;131459;1248;107277;-76
2023/03/13 11:10:58;;;;;;;7.40;4.40;;;;;;;12.50;71.56;99056.28;131417;1247;107249;-75
2023/03/13 11:14:13;;;;;;;12.10;4.80;;;;;;;12.50;71.33;99046.70;131454;1252;107507;-77
2023/03/13 11:17:30;;;;;;;9.90;4.80;;;;;;;12.46;71.07;99038.63;131427;1247;107528;-77
2023/03/13 11:20:39;;;;;;;10.20;4.80;;;;;;;12.36;70.46;99035.02;131448;1253;107511;-78
2023/03/13 11:23:49;;;;;;;10.50;4.50;;;;;;;12.25;70.61;99019.64;131419;1253;107472;-77
2023/03/13 11:27:05;;;;;;;9.30;4.60;;;;;;;12.20;70.89;99015.27;131480;1253;107412;-77
2023/03/13 11:30:22;;;;;;;9.20;4.40;;;;;;;12.17;70.98;99008.84;131449;1253;108132;-76
2023/03/13 11:33:39;;;;;;;10.00;5.10;;;;;;;12.12;70.21;99002.91;131385;1250;107552;-76
2023/03/13 11:36:54;;;;;;;8.10;4.30;;;;;;;12.07;70.63;98998.77;131299;1252;108103;-78
2023/03/13 11:40:09;;;;;;;7.30;4.00;;;;;;;12.04;70.15;98990.02;131361;1250;107499;-76
2023/03/13 11:43:44;;;;;;;7.20;3.90;;;;;;;12.03;70.74;98987.63;131170;1252;107428;-76
2023/03/13 11:47:05;;;;;;;11.50;4.40;;;;;;;12.07;70.34;98980.02;131124;1252;108720;-78
2023/03/13 11:50:33;;;;;;;8.40;3.90;;;;;;;12.06;70.13;98969.11;131061;1252;107468;-77
2023/03/13 11:53:52;;;;;;;10.40;5.60;;;;;;;12.04;70.07;98967.15;131042;1253;107405;-77
2023/03/13 11:56:59;;;;;;;12.70;5.70;;;;;;;12.05;70.31;98967.78;131074;1253;107631;-76
2023/03/13 12:00:27;;;;;;;11.20;5.40;;;;;;;12.04;70.50;98969.34;131151;1252;107423;-77
2023/03/13 12:03:40;;;;;;;9.70;4.60;;;;;;;12.00;70.36;98963.42;131117;1251;107613;-76
2023/03/13 12:06:51;;;;;;;11.10;4.70;;;;;;;11.94;69.99;98961.08;131182;1253;107515;-76
2023/03/13 12:10:01;;;;;;;8.80;4.80;;;;;;;11.90;70.75;98968.11;131086;1259;107497;-76
2023/03/13 12:13:14;;;;;;;9.60;4.20;;;;;;;11.92;71.18;98966.97;131148;1252;107536;-76
2023/03/13 12:16:26;;;;;;;8.90;3.70;;;;;;;11.90;71.41;98967.33;131092;1253;107487;-77
2023/03/13 12:19:38;;;;;;;9.10;3.90;;;;;;;11.85;71.65;98960.02;131069;1253;107499;-78
2023/03/13 12:22:52;;;;;;;10.00;3.90;;;;;;;11.75;71.82;98960.64;131016;1253;107313;-75
2023/03/13 12:26:03;;;;;;;8.70;3.60;;;;;;;11.66;71.96;98949.42;131090;1258;107443;-74
2023/03/13 12:29:16;;;;;;;7.70;3.40;;;;;;;11.63;72.56;98944.99;131076;1250;107349;-75
2023/03/13 12:32:29;;;;;;;7.90;3.40;;;;;;;11.64;72.76;98939.08;131146;1253;107626;-77
2023/03/13 12:35:37;;;;;;;7.70;3.60;;;;;;;11.63;72.86;98941.46;131365;1250;108724;-76
2023/03/13 12:38:51;;;;;;;10.30;4.40;;;;;;;11.57;73.14;98932.77;131370;1252;107518;-76
2023/03/13 12:42:10;;;;;;;8.60;4.00;;;;;;;11.46;73.36;98929.48;131516;1253;107551;-75
2023/03/13 12:45:20;;;;;;;12.90;5.40;;;;;;;11.36;73.40;98923.42;131463;1252;107587;-74
2023/03/13 12:48:49;;;;;;;46.20;15.80;;;;;;;11.31;73.98;98917.66;131215;1252;107566;-75
2023/03/13 12:52:11;;;;;;;219.30;71.70;;;;;;;11.28;74.20;98910.93;131282;1252;107548;-76
2023/03/13 12:55:35;;;;;;;88.90;29.30;;;;;;;11.22;73.93;98909.16;130973;1263;108672;-73
2023/03/13 12:58:48;;;;;;;23.90;9.10;;;;;;;11.16;74.19;98908.36;131217;1252;107519;-77
2023/03/13 13:01:56;;;;;;;121.00;49.60;;;;;;;11.13;74.51;98906.35;131076;1250;106276;-76
2023/03/13 13:05:03;;;;;;;52.90;22.00;;;;;;;11.14;75.05;98904.71;131349;1253;107527;-76
2023/03/13 13:08:26;;;;;;;12.90;5.80;;;;;;;11.15;75.34;98900.63;131175;1250;107366;-75
2023/03/13 13:11:58;;;;;;;24.00;12.30;;;;;;;11.13;75.47;98899.23;131192;1252;107501;-76
2023/03/13 13:15:18;;;;;;;23.10;14.60;;;;;;;11.07;75.57;98886.12;131079;1252;108600;-76
2023/03/13 13:18:28;;;;;;;84.20;35.20;;;;;;;11.00;75.92;98876.08;131165;1250;107432;-75
2023/03/13 13:21:35;;;;;;;19.20;7.10;;;;;;;10.93;75.96;98864.92;131258;1257;107559;-74
2023/03/13 13:24:51;;;;;;;16.00;5.60;;;;;;;10.87;76.03;98868.10;131225;1252;107424;-77
2023/03/13 13:27:56;;;;;;;11.40;4.40;;;;;;;10.83;76.45;98864.33;131109;1250;107573;-75
2023/03/13 13:31:22;;;;;;;15.10;6.00;;;;;;;10.85;76.21;98864.63;131258;1252;108635;-75
2023/03/13 13:35:01;;;;;;;15.20;5.80;;;;;;;10.88;76.74;98856.04;131360;1252;107680;-76
2023/03/13 13:38:35;;;;;;;15.80;5.50;;;;;;;10.90;76.58;98856.05;131246;1259;107513;-76
2023/03/13 13:41:41;;;;;;;13.30;5.30;;;;;;;10.89;76.68;98853.13;131222;1250;107206;-75
2023/03/13 13:45:00;;;;;;;24.90;9.00;;;;;;;10.84;76.87;98850.58;131349;1253;107628;-76
2023/03/13 13:48:34;;;;;;;19.30;6.80;;;;;;;10.79;76.81;98848.35;131301;1260;107028;-77
2023/03/13 13:51:41;;;;;;;16.30;6.00;;;;;;;10.79;76.84;98841.37;131108;1253;107573;-76
2023/03/13 13:54:58;;;;;;;16.30;6.00;;;;;;;10.82;76.82;98838.70;131289;1262;107517;-76
2023/03/13 13:58:06;;;;;;;28.20;10.40;;;;;;;10.87;76.57;98836.98;131394;1252;107503;-74
2023/03/13 14:01:18;;;;;;;18.60;6.90;;;;;;;10.89;76.43;98837.82;131106;1252;107449;-76
2023/03/13 14:04:28;;;;;;;54.10;22.00;;;;;;;10.90;76.32;98830.57;131231;1252;107530;-76
2023/03/13 14:07:48;;;;;;;32.70;15.40;;;;;;;10.89;76.20;98826.82;131228;1250;108351;-74
2023/03/13 14:11:05;;;;;;;25.60;13.90;;;;;;;10.83;76.08;98817.77;131039;1261;107291;-76
2023/03/13 14:14:16;;;;;;;10.80;4.50;;;;;;;10.78;76.11;98814.32;131299;1251;107912;-77
2023/03/13 14:17:22;;;;;;;9.40;3.30;;;;;;;10.72;75.97;98811.09;131414;1251;107527;-75
2023/03/13 14:20:32;;;;;;;15.70;5.20;;;;;;;10.66;76.30;98807.77;131100;1261;107549;-76
2023/03/13 14:23:41;;;;;;;25.30;8.60;;;;;;;10.63;76.40;98809.85;131066;1254;107501;-76
2023/03/13 14:26:47;;;;;;;10.20;3.40;;;;;;;10.64;76.45;98806.91;131279;1259;107599;-74
2023/03/13 14:30:08;;;;;;;10.10;4.20;;;;;;;10.64;76.51;98800.20;131286;1252;107531;-76